Wellington, Texas
Current Conditions -  °F | °C
As of 2:53 AM on Wednesday 22 Oct 2014 (Local Time) from KCDS Reporting Station
Clear Clear  
Wind Chill: 57°   Ceiling: Unl
Heat Index: 57°   Visibility: 10mi
Dew Point: 49°   Wind: 9mph
Humidity: 74%   Direction: 180°S
Pressure: 30.07"   Gusts: NA
Location:  34.86°N, 100.21°W
Report Text: KCDS 220753Z AUTO 18008KT 10SM CLR 14/09 A3007 RMK AO2 SLP163 T01390094
Loading
Personal Weather Stations






























Interactive Weather Map
Tropical Storm Tracking
New forecast layout! Learn more

10-Day Weather Forecast

Advertisements
Track Severe Weather on mobile